createdAt,value
2018-01-27T00:01:24.108Z,925.56
2018-01-27T00:02:55.924Z,925.65
2018-01-27T00:04:27.738Z,925.68
2018-01-27T00:05:59.657Z,925.71
2018-01-27T00:07:31.370Z,925.77
2018-01-27T00:09:03.186Z,925.76
2018-01-27T00:10:35.001Z,925.75
2018-01-27T00:12:06.816Z,925.77
2018-01-27T00:13:38.633Z,925.79
2018-01-27T00:15:10.447Z,925.81
2018-01-27T00:16:42.262Z,925.79
2018-01-27T00:18:14.078Z,925.84
2018-01-27T00:19:45.892Z,925.82
2018-01-27T00:21:17.730Z,925.80
2018-01-27T00:22:49.521Z,925.79
2018-01-27T00:24:21.537Z,925.85
2018-01-27T00:25:53.152Z,925.85
2018-01-27T00:27:24.967Z,925.89
2018-01-27T00:28:56.782Z,925.87
2018-01-27T00:30:28.597Z,925.89
2018-01-27T00:32:00.412Z,925.91
2018-01-27T00:33:32.227Z,925.94
2018-01-27T00:35:04.043Z,925.93
2018-01-27T00:36:36.108Z,925.94
2018-01-27T00:38:07.672Z,925.96
2018-01-27T00:39:39.487Z,925.94
2018-01-27T00:41:11.302Z,926.01
2018-01-27T00:42:43.443Z,926.04
2018-01-27T00:44:14.932Z,925.95
2018-01-27T00:45:46.747Z,925.96
2018-01-27T00:47:18.562Z,925.98
2018-01-27T00:48:50.376Z,926.04
2018-01-27T00:50:22.191Z,925.99
2018-01-27T00:51:54.006Z,926.03
2018-01-27T00:53:25.821Z,926.02
2018-01-27T00:54:57.636Z,926.03
2018-01-27T00:56:29.451Z,925.94
2018-01-27T00:58:01.267Z,925.96
2018-01-27T00:59:33.081Z,925.94
2018-01-27T01:01:04.996Z,925.97
2018-01-27T01:02:36.711Z,925.97
2018-01-27T01:04:08.525Z,926.03
2018-01-27T01:05:40.341Z,926.05
2018-01-27T01:07:12.406Z,926.08
2018-01-27T01:08:43.971Z,926.04
2018-01-27T01:10:15.785Z,926.04
2018-01-27T01:11:47.600Z,926.02
2018-01-27T01:13:19.417Z,926.08
2018-01-27T01:14:51.229Z,926.03
2018-01-27T01:16:23.045Z,926.06
2018-01-27T01:17:54.859Z,925.97
2018-01-27T01:19:26.825Z,926.02
2018-01-27T01:20:58.489Z,926.00
2018-01-27T01:22:30.304Z,926.02
2018-01-27T01:24:02.119Z,926.07
2018-01-27T01:25:33.934Z,926.12
2018-01-27T01:27:05.748Z,926.18
2018-01-27T01:28:37.563Z,926.17
2018-01-27T01:30:09.378Z,926.11
2018-01-27T01:31:41.194Z,926.09
2018-01-27T01:33:13.008Z,926.07
2018-01-27T01:34:44.823Z,926.11
2018-01-27T01:36:16.638Z,926.15
2018-01-27T01:37:48.554Z,926.14
2018-01-27T01:39:20.272Z,926.14
2018-01-27T01:40:52.084Z,926.16
2018-01-27T01:42:23.899Z,926.18
2018-01-27T01:43:55.724Z,926.14
2018-01-27T01:45:27.530Z,926.12
2018-01-27T01:46:59.344Z,926.07
2018-01-27T01:48:31.160Z,926.05
2018-01-27T01:50:02.975Z,926.03
2018-01-27T01:51:34.790Z,926.05
2018-01-27T01:53:06.606Z,926.06
2018-01-27T01:54:38.421Z,926.09
2018-01-27T01:56:10.337Z,926.08
2018-01-27T01:57:42.052Z,925.98
2018-01-27T01:59:13.867Z,926.03
2018-01-27T02:00:45.682Z,926.00
2018-01-27T02:02:17.497Z,926.02
2018-01-27T02:03:49.313Z,926.09
2018-01-27T02:05:21.127Z,925.97
2018-01-27T02:06:52.943Z,926.05
2018-01-27T02:08:24.757Z,926.07
2018-01-27T02:09:56.573Z,926.03
2018-01-27T02:11:28.388Z,925.98
2018-01-27T02:13:00.203Z,926.03
2018-01-27T02:14:32.118Z,926.00
2018-01-27T02:16:03.832Z,926.06
2018-01-27T02:17:35.647Z,926.00
2018-01-27T02:19:07.462Z,926.01
2018-01-27T02:20:39.427Z,925.93
2018-01-27T02:22:11.092Z,925.97
2018-01-27T02:23:42.907Z,925.87
2018-01-27T02:25:14.725Z,925.98
2018-01-27T02:26:46.536Z,925.96
2018-01-27T02:28:18.351Z,925.94
2018-01-27T02:29:50.165Z,925.90
2018-01-27T02:31:21.980Z,925.89
2018-01-27T02:32:53.896Z,925.80
2018-01-27T02:34:25.610Z,925.83
2018-01-27T02:35:57.424Z,925.81
2018-01-27T02:37:29.239Z,925.84
2018-01-27T02:39:01.053Z,925.78
2018-01-27T02:40:32.872Z,925.80
2018-01-27T02:42:04.682Z,925.77
2018-01-27T02:43:36.496Z,925.79
2018-01-27T02:45:08.311Z,925.79
2018-01-27T02:46:40.133Z,925.77
2018-01-27T02:48:11.941Z,925.75
2018-01-27T02:49:43.755Z,925.76
2018-01-27T02:51:15.676Z,925.69
2018-01-27T02:52:47.384Z,925.78
2018-01-27T02:54:19.198Z,925.71
2018-01-27T02:55:51.013Z,925.71
2018-01-27T02:57:22.828Z,925.68
2018-01-27T02:58:54.642Z,925.65
2018-01-27T03:00:26.457Z,925.65
2018-01-27T03:01:58.271Z,925.62
2018-01-27T03:03:30.086Z,925.61
2018-01-27T03:05:01.901Z,925.59
2018-01-27T03:06:33.716Z,925.57
2018-01-27T03:08:05.531Z,925.55
2018-01-27T03:09:37.696Z,925.47
2018-01-27T03:11:09.160Z,925.45
2018-01-27T03:12:40.975Z,925.41
2018-01-27T03:14:12.789Z,925.42
2018-01-27T03:15:44.604Z,925.45
2018-01-27T03:17:16.419Z,925.49
2018-01-27T03:18:48.233Z,925.47
2018-01-27T03:20:20.049Z,925.49
2018-01-27T03:21:52.013Z,925.48
2018-01-27T03:23:23.678Z,925.48
2018-01-27T03:24:55.493Z,925.47
2018-01-27T03:26:27.308Z,925.46
2018-01-27T03:27:59.373Z,925.40
2018-01-27T03:29:30.938Z,925.38
2018-01-27T03:31:02.761Z,925.36
2018-01-27T03:32:34.567Z,925.33
2018-01-27T03:34:06.383Z,925.31
2018-01-27T03:35:38.197Z,925.27
2018-01-27T03:37:10.017Z,925.22
2018-01-27T03:38:41.826Z,925.19
2018-01-27T03:40:13.891Z,925.21
2018-01-27T03:41:45.455Z,925.17
2018-01-27T03:43:17.270Z,925.16
2018-01-27T03:44:49.084Z,925.17
2018-01-27T03:46:20.999Z,925.17
2018-01-27T03:47:52.714Z,925.14
2018-01-27T03:49:24.529Z,925.19
2018-01-27T03:50:56.346Z,925.14
2018-01-27T03:52:28.156Z,925.11
2018-01-27T03:53:59.973Z,925.15
2018-01-27T03:55:31.786Z,925.17
2018-01-27T03:57:03.600Z,925.15
2018-01-27T03:58:35.565Z,925.13
2018-01-27T04:00:07.232Z,925.10
2018-01-27T04:01:39.044Z,925.17
2018-01-27T04:03:10.859Z,925.11
2018-01-27T04:04:42.773Z,925.07
2018-01-27T04:06:14.487Z,925.06
2018-01-27T04:07:46.302Z,925.06
2018-01-27T04:09:18.116Z,924.95
2018-01-27T04:10:49.931Z,924.93
2018-01-27T04:12:21.746Z,924.89
2018-01-27T04:13:53.561Z,924.90
2018-01-27T04:15:25.376Z,924.76
2018-01-27T04:16:57.191Z,924.90
2018-01-27T04:18:29.005Z,924.96
2018-01-27T04:20:00.820Z,924.87
2018-01-27T04:21:32.635Z,924.87
2018-01-27T04:23:04.550Z,924.85
2018-01-27T04:24:36.264Z,924.91
2018-01-27T04:26:08.078Z,924.97
2018-01-27T04:27:39.893Z,924.89
2018-01-27T04:29:11.708Z,924.92
2018-01-27T04:30:43.524Z,924.91
2018-01-27T04:32:15.338Z,924.95
2018-01-27T04:33:47.152Z,924.96
2018-01-27T04:35:18.967Z,924.91
2018-01-27T04:36:50.781Z,924.88
2018-01-27T04:38:22.596Z,924.94
2018-01-27T04:39:54.412Z,924.94
2018-01-27T04:41:26.576Z,924.93
2018-01-27T04:42:58.041Z,924.96
2018-01-27T04:44:29.855Z,924.94
2018-01-27T04:46:01.670Z,924.96
2018-01-27T04:47:33.485Z,924.93
2018-01-27T04:49:05.300Z,924.97
2018-01-27T04:50:37.115Z,924.92
2018-01-27T04:52:08.930Z,924.97
2018-01-27T04:53:40.895Z,924.93
2018-01-27T04:55:12.559Z,924.79
2018-01-27T04:56:44.374Z,924.88
2018-01-27T04:58:16.189Z,924.89
2018-01-27T04:59:48.304Z,924.87
2018-01-27T05:01:19.819Z,924.86
2018-01-27T05:02:51.633Z,924.90
2018-01-27T05:04:23.448Z,924.92
2018-01-27T05:05:55.264Z,924.82
2018-01-27T05:07:27.077Z,924.85
2018-01-27T05:08:58.892Z,924.87
2018-01-27T05:10:30.707Z,924.88
2018-01-27T05:12:02.772Z,924.83
2018-01-27T05:13:34.337Z,924.91
2018-01-27T05:15:06.152Z,924.84
2018-01-27T05:16:37.967Z,924.81
2018-01-27T05:18:09.881Z,924.78
2018-01-27T05:19:41.596Z,924.81
2018-01-27T05:21:13.411Z,924.77
2018-01-27T05:22:45.226Z,924.75
2018-01-27T05:24:17.191Z,924.79
2018-01-27T05:25:48.855Z,924.73
2018-01-27T05:27:20.670Z,924.74
2018-01-27T05:28:52.484Z,924.69
2018-01-27T05:31:56.114Z,924.66
2018-01-27T05:33:27.928Z,924.64
2018-01-27T05:34:59.743Z,924.66
2018-01-27T05:36:31.558Z,924.64
2018-01-27T05:38:03.477Z,924.59
2018-01-27T05:39:35.188Z,924.54
2018-01-27T05:41:07.004Z,924.46
2018-01-27T05:42:38.818Z,924.47
2018-01-27T05:44:10.884Z,924.45
2018-01-27T05:45:42.449Z,924.45
2018-01-27T05:47:14.264Z,924.45
2018-01-27T05:48:46.079Z,924.43
2018-01-27T05:50:17.895Z,924.45
2018-01-27T05:51:49.710Z,924.50
2018-01-27T05:53:21.525Z,924.48
2018-01-27T05:54:53.340Z,924.54
2018-01-27T05:56:25.257Z,924.53
2018-01-27T05:57:56.972Z,924.57
2018-01-27T05:59:28.787Z,924.54
2018-01-27T06:01:00.602Z,924.53
2018-01-27T06:02:32.417Z,924.51
2018-01-27T06:04:04.232Z,924.56
2018-01-27T06:05:36.048Z,924.48
2018-01-27T06:07:07.863Z,924.49
2018-01-27T06:08:39.678Z,924.53
2018-01-27T06:10:11.498Z,924.54
2018-01-27T06:11:43.309Z,924.58
2018-01-27T06:13:15.124Z,924.62
2018-01-27T06:14:47.289Z,924.59
2018-01-27T06:16:18.753Z,924.58
2018-01-27T06:17:50.568Z,924.61
2018-01-27T06:19:22.383Z,924.59
2018-01-27T06:20:54.198Z,924.57
2018-01-27T06:22:26.013Z,924.55
2018-01-27T06:23:57.828Z,924.56
2018-01-27T06:25:29.643Z,924.51
2018-01-27T06:27:01.608Z,924.49
2018-01-27T06:28:33.273Z,924.52
2018-01-27T06:30:05.088Z,924.57
2018-01-27T06:31:36.903Z,924.58
2018-01-27T06:33:08.818Z,924.57
2018-01-27T06:34:40.532Z,924.61
2018-01-27T06:36:12.346Z,924.61
2018-01-27T06:37:44.161Z,924.60
2018-01-27T06:39:15.977Z,924.58
2018-01-27T06:40:47.792Z,924.54
2018-01-27T06:42:19.606Z,924.57
2018-01-27T06:43:51.421Z,924.57
2018-01-27T06:45:23.486Z,924.58
2018-01-27T06:46:55.051Z,924.58
2018-01-27T06:48:26.866Z,924.64
2018-01-27T06:49:58.680Z,924.58
2018-01-27T06:51:30.595Z,924.58
2018-01-27T06:53:02.310Z,924.58
2018-01-27T06:54:34.124Z,924.55
2018-01-27T06:56:05.939Z,924.59
2018-01-27T06:57:37.754Z,924.67
2018-01-27T06:59:09.569Z,924.67
2018-01-27T07:00:41.383Z,924.73
2018-01-27T07:02:13.197Z,924.72
2018-01-27T07:03:45.112Z,924.77
2018-01-27T07:05:16.826Z,924.79
2018-01-27T07:06:48.640Z,924.78
2018-01-27T07:08:20.462Z,924.79
2018-01-27T07:09:52.520Z,924.80
2018-01-27T07:11:24.084Z,924.83
2018-01-27T07:12:55.897Z,924.83
2018-01-27T07:14:27.711Z,924.81
2018-01-27T07:15:59.558Z,924.80
2018-01-27T07:17:31.341Z,924.83
2018-01-27T07:19:03.169Z,924.83
2018-01-27T07:20:34.969Z,924.83
2018-01-27T07:22:06.783Z,924.85
2018-01-27T07:23:38.598Z,924.87
2018-01-27T07:25:10.412Z,924.91
2018-01-27T07:26:42.226Z,924.96
2018-01-27T07:28:14.140Z,924.97
2018-01-27T07:29:45.857Z,924.97
2018-01-27T07:31:17.669Z,925.02
2018-01-27T07:32:49.483Z,925.00
2018-01-27T07:34:21.449Z,925.02
2018-01-27T07:35:53.112Z,925.03
2018-01-27T07:37:24.926Z,925.03
2018-01-27T07:38:56.740Z,925.08
2018-01-27T07:40:28.555Z,925.08
2018-01-27T07:42:00.368Z,925.12
2018-01-27T07:43:32.182Z,925.15
2018-01-27T07:45:03.996Z,925.10
2018-01-27T07:46:36.161Z,925.10
2018-01-27T07:48:07.625Z,925.12
2018-01-27T07:49:39.440Z,925.16
2018-01-27T07:51:11.253Z,925.10
2018-01-27T07:52:43.068Z,925.11
2018-01-27T07:54:14.882Z,925.09
2018-01-27T07:55:46.696Z,925.16
2018-01-27T07:57:18.514Z,925.17
2018-01-27T07:58:50.325Z,925.17
2018-01-27T08:00:22.139Z,925.23
2018-01-27T08:01:53.953Z,925.18
2018-01-27T08:03:25.769Z,925.23
2018-01-27T08:04:57.681Z,925.23
2018-01-27T08:06:29.396Z,925.27
2018-01-27T08:08:01.209Z,925.26
2018-01-27T08:09:33.024Z,925.25
2018-01-27T08:11:04.838Z,925.20
2018-01-27T08:12:36.652Z,925.27
2018-01-27T08:14:08.466Z,925.27
2018-01-27T08:15:40.280Z,925.29
2018-01-27T08:17:12.345Z,925.27
2018-01-27T08:18:43.908Z,925.27
2018-01-27T08:20:15.721Z,925.29
2018-01-27T08:21:47.536Z,925.32
2018-01-27T08:23:19.550Z,925.32
2018-01-27T08:24:51.164Z,925.31
2018-01-27T08:26:22.982Z,925.30
2018-01-27T08:27:54.791Z,925.30
2018-01-27T08:29:26.639Z,925.33
2018-01-27T08:30:58.419Z,925.32
2018-01-27T08:32:30.232Z,925.33
2018-01-27T08:34:02.047Z,925.32
2018-01-27T08:35:34.011Z,925.35
2018-01-27T08:37:05.675Z,925.35
2018-01-27T08:38:37.488Z,925.35
2018-01-27T08:40:09.302Z,925.33
2018-01-27T08:41:41.219Z,925.32
2018-01-27T08:43:12.931Z,925.35
2018-01-27T08:44:44.745Z,925.31
2018-01-27T08:46:16.558Z,925.36
2018-01-27T08:47:48.372Z,925.38
2018-01-27T08:49:20.187Z,925.33
2018-01-27T08:50:52.001Z,925.34
2018-01-27T08:52:23.818Z,925.37
2018-01-27T08:53:55.628Z,925.38
2018-01-27T08:55:27.442Z,925.40
2018-01-27T08:56:59.256Z,925.37
2018-01-27T08:58:31.071Z,925.44
2018-01-27T09:00:02.985Z,925.40
2018-01-27T09:01:34.699Z,925.42
2018-01-27T09:03:06.514Z,925.49
2018-01-27T09:04:38.328Z,925.40
2018-01-27T09:06:10.143Z,925.44
2018-01-27T09:07:41.956Z,925.42
2018-01-27T09:09:13.772Z,925.44
2018-01-27T09:10:45.586Z,925.43
2018-01-27T09:12:17.551Z,925.41
2018-01-27T09:13:49.216Z,925.43
2018-01-27T09:15:21.030Z,925.45
2018-01-27T09:16:52.854Z,925.50
2018-01-27T09:18:25.010Z,925.47
2018-01-27T09:19:56.474Z,925.48
2018-01-27T09:21:28.290Z,925.50
2018-01-27T09:23:00.105Z,925.52
2018-01-27T09:24:31.919Z,925.56
2018-01-27T09:26:03.734Z,925.58
2018-01-27T09:27:35.549Z,925.58
2018-01-27T09:29:07.363Z,925.53
2018-01-27T09:30:39.329Z,925.59
2018-01-27T09:32:10.993Z,925.61
2018-01-27T09:33:42.808Z,925.59
2018-01-27T09:35:14.628Z,925.58
2018-01-27T09:36:46.538Z,925.61
2018-01-27T09:38:18.253Z,925.67
2018-01-27T09:39:50.068Z,925.64
2018-01-27T09:41:21.885Z,925.66
2018-01-27T09:42:53.698Z,925.66
2018-01-27T09:44:25.515Z,925.69
2018-01-27T09:45:57.328Z,925.77
2018-01-27T09:47:29.143Z,925.77
2018-01-27T09:49:01.208Z,925.73
2018-01-27T09:50:32.773Z,925.69
2018-01-27T09:52:04.588Z,925.71
2018-01-27T09:53:36.402Z,925.74
2018-01-27T09:55:08.317Z,925.75
2018-01-27T09:56:40.032Z,925.76
2018-01-27T09:58:11.847Z,925.84
2018-01-27T09:59:43.662Z,925.80
2018-01-27T10:01:15.627Z,925.81
2018-01-27T10:02:47.291Z,925.78
2018-01-27T10:04:19.106Z,925.78
2018-01-27T10:05:50.920Z,925.78
2018-01-27T10:07:22.885Z,925.78
2018-01-27T10:08:54.551Z,925.80
2018-01-27T10:10:26.365Z,925.81
2018-01-27T10:11:58.180Z,925.80
2018-01-27T10:13:30.093Z,925.87
2018-01-27T10:15:01.808Z,925.91
2018-01-27T10:16:33.622Z,925.91
2018-01-27T10:18:05.437Z,925.91
2018-01-27T10:19:37.503Z,925.92
2018-01-27T10:21:09.067Z,926.01
2018-01-27T10:22:40.881Z,926.06
2018-01-27T10:24:12.695Z,926.03
2018-01-27T10:25:44.510Z,926.00
2018-01-27T10:27:16.325Z,926.05
2018-01-27T10:28:48.168Z,926.10
2018-01-27T10:30:19.954Z,926.10
2018-01-27T10:31:52.070Z,926.08
2018-01-27T10:33:23.588Z,926.18
2018-01-27T10:34:55.409Z,926.15
2018-01-27T10:36:27.215Z,926.22
2018-01-27T10:37:59.032Z,926.25
2018-01-27T10:39:30.847Z,926.25
2018-01-27T10:41:02.660Z,926.25
2018-01-27T10:42:34.475Z,926.30
2018-01-27T10:44:06.291Z,926.23
2018-01-27T10:45:38.107Z,926.32
2018-01-27T10:47:09.922Z,926.30
2018-01-27T10:48:41.737Z,926.20
2018-01-27T10:50:13.905Z,926.31
2018-01-27T10:51:45.370Z,926.29
2018-01-27T10:53:17.189Z,926.25
2018-01-27T10:54:49.004Z,926.36
2018-01-27T10:56:20.821Z,926.44
2018-01-27T10:57:52.638Z,926.40
2018-01-27T10:59:24.455Z,926.28
2018-01-27T11:00:56.272Z,926.28
2018-01-27T11:02:28.090Z,926.24
2018-01-27T11:03:59.908Z,926.28
2018-01-27T11:05:31.726Z,926.51
2018-01-27T11:07:03.579Z,926.33
2018-01-27T11:08:35.462Z,926.38
2018-01-27T11:10:07.181Z,926.25
2018-01-27T11:11:38.999Z,926.27
2018-01-27T11:13:10.817Z,926.22
2018-01-27T11:14:42.635Z,926.21
2018-01-27T11:16:14.454Z,926.32
2018-01-27T11:17:46.272Z,926.19
2018-01-27T11:19:18.091Z,926.29
2018-01-27T11:20:49.908Z,926.39
2018-01-27T11:22:21.726Z,926.37
2018-01-27T11:23:53.544Z,926.41
2018-01-27T11:25:25.362Z,926.40
2018-01-27T11:26:57.280Z,926.63
2018-01-27T11:28:28.997Z,926.56
2018-01-27T11:30:00.816Z,926.38
2018-01-27T11:31:32.634Z,926.51
2018-01-27T11:33:04.452Z,926.53
2018-01-27T11:34:36.271Z,926.51
2018-01-27T11:36:08.089Z,926.56
2018-01-27T11:37:39.909Z,926.47
2018-01-27T11:39:11.878Z,926.55
2018-01-27T11:40:43.547Z,926.52
2018-01-27T11:42:15.365Z,926.57
2018-01-27T11:43:47.184Z,926.59
2018-01-27T11:45:19.254Z,926.69
2018-01-27T11:46:51.186Z,926.70
2018-01-27T11:48:22.640Z,926.62
2018-01-27T11:49:54.460Z,926.59
2018-01-27T11:51:26.532Z,926.54
2018-01-27T11:52:58.098Z,926.63
2018-01-27T11:54:29.917Z,926.70
2018-01-27T11:56:01.736Z,926.71
2018-01-27T11:57:33.555Z,926.63
2018-01-27T11:59:05.374Z,926.62
2018-01-27T12:00:37.194Z,926.87
2018-01-27T12:02:09.012Z,926.82
2018-01-27T12:03:40.932Z,926.73
2018-01-27T12:05:12.652Z,926.80
2018-01-27T12:06:44.471Z,926.84
2018-01-27T12:08:16.292Z,926.64
2018-01-27T12:09:48.111Z,926.59
2018-01-27T12:11:19.983Z,926.61
2018-01-27T12:12:51.751Z,926.54
2018-01-27T12:14:23.571Z,927.02
2018-01-27T12:15:55.391Z,926.92
2018-01-27T12:17:27.211Z,926.74
2018-01-27T12:18:59.031Z,926.56
2018-01-27T12:20:30.850Z,926.55
2018-01-27T12:22:03.021Z,926.85
2018-01-27T12:23:34.490Z,926.64
2018-01-27T12:25:06.310Z,926.73
2018-01-27T12:26:38.129Z,926.82
2018-01-27T12:28:09.949Z,926.90
2018-01-27T12:29:41.769Z,926.86
2018-01-27T12:31:13.589Z,927.19
2018-01-27T12:32:45.409Z,927.18
2018-01-27T12:34:17.230Z,926.92
2018-01-27T12:35:49.051Z,927.03
2018-01-27T12:37:20.872Z,926.86
2018-01-27T12:38:52.694Z,926.89
2018-01-27T12:40:25.066Z,926.88
2018-01-27T12:41:56.337Z,926.93
2018-01-27T12:43:28.161Z,926.98
2018-01-27T12:44:59.981Z,926.93
2018-01-27T12:46:31.803Z,927.23
2018-01-27T12:48:03.625Z,927.23
2018-01-27T12:49:35.446Z,926.97
2018-01-27T12:51:07.270Z,927.04
2018-01-27T12:52:39.341Z,927.27
2018-01-27T12:54:10.912Z,927.16
2018-01-27T12:55:42.735Z,927.27
2018-01-27T12:57:14.557Z,927.30
2018-01-27T12:58:46.480Z,927.33
2018-01-27T13:00:18.203Z,927.27
2018-01-27T13:01:50.026Z,927.30
2018-01-27T13:03:21.848Z,927.14
2018-01-27T13:04:53.672Z,927.26
2018-01-27T13:06:25.494Z,927.32
2018-01-27T13:07:57.318Z,927.14
2018-01-27T13:09:29.141Z,927.11
2018-01-27T13:11:01.114Z,927.11
2018-01-27T13:12:32.786Z,927.16
2018-01-27T13:14:04.609Z,927.10
2018-01-27T13:15:36.432Z,927.09
2018-01-27T13:17:08.362Z,927.06
2018-01-27T13:18:40.076Z,927.00
2018-01-27T13:20:11.898Z,927.01
2018-01-27T13:21:43.719Z,926.92
2018-01-27T13:23:15.792Z,926.82
2018-01-27T13:24:47.366Z,926.78
2018-01-27T13:26:19.185Z,926.92
2018-01-27T13:27:51.007Z,926.81
2018-01-27T13:29:22.828Z,926.87
2018-01-27T13:30:54.649Z,926.96
2018-01-27T13:32:26.470Z,927.20
2018-01-27T13:33:58.462Z,927.10
2018-01-27T13:35:30.213Z,927.04
2018-01-27T13:37:01.932Z,927.02
2018-01-27T13:38:33.753Z,926.85
2018-01-27T13:40:05.574Z,927.01
2018-01-27T13:41:37.395Z,927.13
2018-01-27T13:43:09.220Z,927.12
2018-01-27T13:44:41.038Z,927.10
2018-01-27T13:46:12.859Z,926.91
2018-01-27T13:47:44.681Z,926.84
2018-01-27T13:49:16.503Z,927.02
2018-01-27T13:50:48.338Z,927.05
2018-01-27T13:52:20.146Z,927.11
2018-01-27T13:53:52.320Z,927.03
2018-01-27T13:55:23.790Z,927.05
2018-01-27T13:56:55.618Z,927.05
2018-01-27T13:58:27.436Z,927.14
2018-01-27T13:59:59.257Z,927.11
2018-01-27T14:01:31.080Z,926.91
2018-01-27T14:03:02.903Z,926.94
2018-01-27T14:04:34.725Z,926.80
2018-01-27T14:06:06.648Z,926.63
2018-01-27T14:07:38.370Z,926.64
2018-01-27T14:09:10.192Z,926.84
2018-01-27T14:10:42.018Z,926.82
2018-01-27T14:12:13.937Z,926.73
2018-01-27T14:13:45.659Z,926.80
2018-01-27T14:15:17.482Z,926.63
2018-01-27T14:16:49.304Z,926.66
2018-01-27T14:18:21.126Z,926.83
2018-01-27T14:19:52.947Z,927.05
2018-01-27T14:21:24.769Z,926.84
2018-01-27T14:22:56.592Z,926.73
2018-01-27T14:24:28.666Z,926.80
2018-01-27T14:26:00.236Z,926.80
2018-01-27T14:27:32.057Z,926.92
2018-01-27T14:29:03.879Z,927.03
2018-01-27T14:30:35.801Z,927.19
2018-01-27T14:32:07.523Z,927.17
2018-01-27T14:33:39.346Z,927.21
2018-01-27T14:35:11.168Z,927.18
2018-01-27T14:36:42.991Z,926.97
2018-01-27T14:38:14.814Z,926.78
2018-01-27T14:39:46.637Z,926.95
2018-01-27T14:41:18.461Z,926.93
2018-01-27T14:42:50.301Z,926.76
2018-01-27T14:44:22.110Z,926.63
2018-01-27T14:45:53.935Z,926.77
2018-01-27T14:47:25.760Z,926.73
2018-01-27T14:48:57.686Z,926.79
2018-01-27T14:50:29.411Z,926.89
2018-01-27T14:52:01.238Z,926.73
2018-01-27T14:53:33.064Z,926.55
2018-01-27T14:55:05.140Z,926.61
2018-01-27T14:56:36.714Z,926.66
2018-01-27T14:58:08.540Z,926.72
2018-01-27T14:59:40.365Z,926.72
2018-01-27T15:01:12.190Z,926.66
2018-01-27T15:02:44.015Z,926.56
2018-01-27T15:04:15.839Z,926.58
2018-01-27T15:05:47.663Z,926.59
2018-01-27T15:07:19.589Z,926.56
2018-01-27T15:08:51.312Z,926.61
2018-01-27T15:10:23.136Z,926.61
2018-01-27T15:11:54.959Z,926.59
2018-01-27T15:13:26.782Z,926.70
2018-01-27T15:14:58.606Z,926.87
2018-01-27T15:16:30.429Z,926.93
2018-01-27T15:18:02.255Z,927.11
2018-01-27T15:19:34.078Z,927.11
2018-01-27T15:21:05.904Z,927.22
2018-01-27T15:22:37.728Z,927.14
2018-01-27T15:24:09.554Z,927.05
2018-01-27T15:25:41.480Z,927.09
2018-01-27T15:27:13.205Z,927.07
2018-01-27T15:28:45.031Z,926.99
2018-01-27T15:30:16.857Z,926.91
2018-01-27T15:31:48.683Z,926.60
2018-01-27T15:33:20.510Z,926.74
2018-01-27T15:34:52.335Z,926.87
2018-01-27T15:36:24.160Z,926.85
2018-01-27T15:37:56.086Z,926.84
2018-01-27T15:39:27.813Z,926.87
2018-01-27T15:40:59.637Z,926.94
2018-01-27T15:42:31.463Z,926.91
2018-01-27T15:44:03.541Z,926.95
2018-01-27T15:45:35.112Z,926.86
2018-01-27T15:47:06.940Z,926.57
2018-01-27T15:48:38.762Z,926.39
2018-01-27T15:50:10.588Z,926.37
2018-01-27T15:51:42.412Z,926.35
2018-01-27T15:53:14.237Z,926.48
2018-01-27T15:54:46.061Z,926.61
2018-01-27T15:56:18.137Z,926.72
2018-01-27T15:57:49.711Z,926.69
2018-01-27T15:59:21.536Z,926.66
2018-01-27T16:00:53.360Z,926.71
2018-01-27T16:02:25.285Z,926.65
2018-01-27T16:03:57.010Z,926.66
2018-01-27T16:05:28.837Z,926.68
2018-01-27T16:07:00.661Z,926.54
2018-01-27T16:08:32.638Z,926.45
2018-01-27T16:10:04.314Z,926.31
2018-01-27T16:11:36.141Z,926.43
2018-01-27T16:13:07.967Z,926.36
2018-01-27T16:14:39.794Z,926.41
2018-01-27T16:16:11.620Z,926.28
2018-01-27T16:17:43.446Z,926.33
2018-01-27T16:19:15.273Z,926.44
2018-01-27T16:20:47.252Z,926.22
2018-01-27T16:22:18.927Z,926.19
2018-01-27T16:23:50.753Z,926.00
2018-01-27T16:25:22.581Z,926.13
2018-01-27T16:26:54.410Z,925.91
2018-01-27T16:28:26.234Z,926.05
2018-01-27T16:29:58.062Z,926.05
2018-01-27T16:31:29.886Z,926.17
2018-01-27T16:33:01.712Z,926.03
2018-01-27T16:34:33.539Z,925.90
2018-01-27T16:36:05.383Z,925.90
2018-01-27T16:37:37.190Z,926.31
2018-01-27T16:39:09.116Z,926.24
2018-01-27T16:40:40.841Z,925.90
2018-01-27T16:42:12.667Z,925.97
2018-01-27T16:43:44.493Z,925.81
2018-01-27T16:45:16.317Z,925.74
2018-01-27T16:46:48.141Z,925.81
2018-01-27T16:48:19.968Z,925.94
2018-01-27T16:49:51.791Z,926.15
2018-01-27T16:51:23.615Z,926.14
2018-01-27T16:52:55.441Z,925.68
2018-01-27T16:54:27.265Z,925.69
2018-01-27T16:55:59.090Z,925.86
2018-01-27T16:57:31.266Z,925.79
2018-01-27T16:59:02.740Z,925.81
2018-01-27T17:00:34.566Z,925.77
2018-01-27T17:02:06.391Z,925.71
2018-01-27T17:03:38.214Z,925.91
2018-01-27T17:05:10.039Z,926.01
2018-01-27T17:06:41.863Z,925.91
2018-01-27T17:08:13.700Z,925.79
2018-01-27T17:09:45.511Z,925.60
2018-01-27T17:11:17.336Z,925.75
2018-01-27T17:12:49.161Z,925.56
2018-01-27T17:14:20.989Z,925.62
2018-01-27T17:15:52.909Z,925.66
2018-01-27T17:17:24.633Z,925.58
2018-01-27T17:18:57.022Z,925.80
2018-01-27T17:20:28.281Z,925.82
2018-01-27T17:22:00.105Z,925.83
2018-01-27T17:23:31.929Z,925.90
2018-01-27T17:25:03.752Z,925.88
2018-01-27T17:26:35.576Z,925.81
2018-01-27T17:28:07.650Z,925.89
2018-01-27T17:29:39.224Z,925.79
2018-01-27T17:31:11.046Z,925.84
2018-01-27T17:32:42.870Z,925.76
2018-01-27T17:34:14.796Z,925.74
2018-01-27T17:35:46.518Z,925.70
2018-01-27T17:37:18.344Z,925.58
2018-01-27T17:38:50.167Z,925.74
2018-01-27T17:40:21.992Z,925.75
2018-01-27T17:41:53.815Z,925.77
2018-01-27T17:43:25.640Z,925.77
2018-01-27T17:44:57.463Z,925.69
2018-01-27T17:46:29.288Z,925.63
2018-01-27T17:48:01.140Z,925.64
2018-01-27T17:49:32.937Z,925.48
2018-01-27T17:51:05.164Z,925.59
2018-01-27T17:52:36.687Z,925.49
2018-01-27T17:54:08.410Z,925.49
2018-01-27T17:55:40.235Z,925.55
2018-01-27T17:57:12.060Z,925.47
2018-01-27T17:58:43.885Z,925.42
2018-01-27T18:00:15.710Z,925.59
2018-01-27T18:01:47.534Z,925.56
2018-01-27T18:03:19.360Z,925.54
2018-01-27T18:04:51.186Z,925.45
2018-01-27T18:06:23.011Z,925.49
2018-01-27T18:07:54.835Z,925.43
2018-01-27T18:09:26.663Z,925.42
2018-01-27T18:10:59.037Z,925.34
2018-01-27T18:12:30.311Z,925.34
2018-01-27T18:14:02.142Z,925.42
2018-01-27T18:15:33.962Z,925.49
2018-01-27T18:17:05.787Z,925.39
2018-01-27T18:18:37.615Z,925.30
2018-01-27T18:20:09.439Z,925.26
2018-01-27T18:21:41.265Z,925.27
2018-01-27T18:23:13.090Z,925.40
2018-01-27T18:24:44.915Z,925.46
2018-01-27T18:26:16.741Z,925.41
2018-01-27T18:27:48.566Z,925.41
2018-01-27T18:29:20.492Z,925.39
2018-01-27T18:30:52.220Z,925.35
2018-01-27T18:32:24.043Z,925.25
2018-01-27T18:33:55.869Z,925.29
2018-01-27T18:35:27.694Z,925.30
2018-01-27T18:36:59.519Z,925.13
2018-01-27T18:38:31.344Z,925.10
2018-01-27T18:40:03.170Z,925.29
2018-01-27T18:41:34.994Z,925.31
2018-01-27T18:43:06.819Z,925.31
2018-01-27T18:44:38.661Z,925.14
2018-01-27T18:46:10.471Z,925.16
2018-01-27T18:47:42.396Z,925.20
2018-01-27T18:49:14.175Z,925.25
2018-01-27T18:50:45.946Z,925.30
2018-01-27T18:52:17.773Z,925.24
2018-01-27T18:53:49.603Z,925.27
2018-01-27T18:55:21.423Z,925.18
2018-01-27T18:56:53.248Z,925.07
2018-01-27T18:58:25.074Z,925.05
2018-01-27T18:59:57.700Z,925.01
2018-01-27T19:01:28.724Z,924.91
2018-01-27T19:03:00.550Z,924.76
2018-01-27T19:04:32.380Z,924.56
2018-01-27T19:06:04.548Z,924.82
2018-01-27T19:07:36.023Z,924.76